createdAt,value
2018-11-02T00:00:49.142Z,100136.03
2018-11-02T00:04:55.923Z,100138.51
2018-11-02T00:09:05.787Z,100156.65
2018-11-02T00:13:12.607Z,100162.56
2018-11-02T00:17:19.312Z,100166.41
2018-11-02T00:21:25.909Z,100159.20
2018-11-02T00:25:32.641Z,100162.74
2018-11-02T00:29:39.448Z,100161.48
2018-11-02T00:33:46.117Z,100165.98
2018-11-02T00:37:52.921Z,100157.30
2018-11-02T00:41:59.573Z,100167.15
2018-11-02T00:46:06.908Z,100168.91
2018-11-02T00:50:13.970Z,100179.39
2018-11-02T00:54:20.711Z,100187.99
2018-11-02T00:58:27.411Z,100193.19
2018-11-02T01:02:34.166Z,100199.70
2018-11-02T01:06:40.932Z,100205.09
2018-11-02T01:10:47.631Z,100203.81
2018-11-02T01:14:54.303Z,100212.20
2018-11-02T01:19:01.151Z,100206.87
2018-11-02T01:23:08.068Z,100213.52
2018-11-02T01:27:14.835Z,100217.81
2018-11-02T01:31:21.617Z,100215.38
2018-11-02T01:35:28.337Z,100214.91
2018-11-02T01:39:35.086Z,100215.15
2018-11-02T01:43:41.907Z,100219.30
2018-11-02T01:47:48.531Z,100223.42
2018-11-02T01:51:55.391Z,100222.16
2018-11-02T01:56:01.977Z,100221.03
2018-11-02T02:00:09.768Z,100214.20
2018-11-02T02:04:16.554Z,100218.72
2018-11-02T02:08:23.257Z,100210.98
2018-11-02T02:12:29.977Z,100216.75
2018-11-02T02:16:36.703Z,100217.73
2018-11-02T02:20:43.427Z,100230.70
2018-11-02T02:24:50.141Z,100229.52
2018-11-02T02:28:56.843Z,100216.58
2018-11-02T02:33:03.569Z,100214.20
2018-11-02T02:37:10.331Z,100216.86
2018-11-02T02:41:17.069Z,100217.47
2018-11-02T02:45:23.785Z,100216.50
2018-11-02T02:49:30.485Z,100208.25
2018-11-02T02:53:37.278Z,100215.56
2018-11-02T02:57:43.921Z,100229.23
2018-11-02T03:01:50.635Z,100238.56
2018-11-02T03:05:57.481Z,100241.17
2018-11-02T03:10:04.191Z,100244.13
2018-11-02T03:14:10.912Z,100249.06
2018-11-02T03:18:17.601Z,100253.81
2018-11-02T03:22:24.353Z,100260.50
2018-11-02T03:26:30.981Z,100267.07
2018-11-02T03:30:37.709Z,100273.61
2018-11-02T03:34:44.406Z,100275.13
2018-11-02T03:38:51.157Z,100284.59
2018-11-02T03:42:57.933Z,100284.94
2018-11-02T03:47:04.540Z,100301.21
2018-11-02T03:51:11.253Z,100303.46
2018-11-02T03:55:18.060Z,100319.50
2018-11-02T03:59:24.779Z,100328.34
2018-11-02T04:03:31.402Z,100330.70
2018-11-02T04:07:38.175Z,100336.94
2018-11-02T04:11:44.901Z,100351.39
2018-11-02T04:15:51.699Z,100357.04
2018-11-02T04:19:58.319Z,100361.11
2018-11-02T04:24:05.001Z,100370.25
2018-11-02T04:28:11.711Z,100371.60
2018-11-02T04:32:18.432Z,100370.29
2018-11-02T04:36:25.162Z,100368.47
2018-11-02T04:40:31.862Z,100377.38
2018-11-02T04:44:38.596Z,100382.02
2018-11-02T04:48:45.366Z,100375.81
2018-11-02T04:52:52.102Z,100379.87
2018-11-02T04:56:58.924Z,100382.78
2018-11-02T05:01:05.542Z,100397.89
2018-11-02T05:05:12.439Z,100403.58
2018-11-02T05:09:19.057Z,100410.00
2018-11-02T05:13:25.824Z,100424.59
2018-11-02T05:17:32.716Z,100438.80
2018-11-02T05:21:39.431Z,100440.50
2018-11-02T05:25:46.190Z,100444.36
2018-11-02T05:29:52.883Z,100451.63
2018-11-02T05:33:59.579Z,100464.34
2018-11-02T05:38:06.313Z,100461.71
2018-11-02T05:42:13.069Z,100464.91
2018-11-02T05:46:19.834Z,100478.63
2018-11-02T05:50:26.988Z,100487.16
2018-11-02T05:54:33.791Z,100493.03
2018-11-02T05:58:40.658Z,100493.72
2018-11-02T06:02:47.496Z,100491.84
2018-11-02T06:06:54.265Z,100496.57
2018-11-02T06:11:01.140Z,100495.08
2018-11-02T06:15:07.967Z,100493.69
2018-11-02T06:19:15.272Z,100487.07
2018-11-02T06:23:22.518Z,100497.97
2018-11-02T06:27:31.551Z,100504.55
2018-11-02T06:31:38.949Z,100507.63
2018-11-02T06:35:45.801Z,100512.36
2018-11-02T06:39:52.447Z,100521.45
2018-11-02T06:43:59.306Z,100528.55
2018-11-02T06:48:06.245Z,100529.16
2018-11-02T06:52:13.034Z,100541.47
2018-11-02T06:56:19.759Z,100551.59
2018-11-02T07:00:27.627Z,100565.88
2018-11-02T07:04:34.301Z,100569.83
2018-11-02T07:08:41.205Z,100565.70
2018-11-02T07:12:47.764Z,100586.28
2018-11-02T07:16:54.516Z,100596.29
2018-11-02T07:21:01.377Z,100606.37
2018-11-02T07:25:08.714Z,100610.89
2018-11-02T07:29:15.382Z,100612.09
2018-11-02T07:33:22.699Z,100632.16
2018-11-02T07:37:29.628Z,100629.17
2018-11-02T07:41:36.440Z,100632.24
2018-11-02T07:45:43.080Z,100639.76
2018-11-02T07:49:52.778Z,100646.07
2018-11-02T07:53:59.470Z,100655.13
2018-11-02T07:58:06.428Z,100662.67
2018-11-02T08:02:13.112Z,100675.34
2018-11-02T08:06:19.842Z,100668.26
2018-11-02T08:10:26.667Z,100661.58
2018-11-02T08:14:47.687Z,100663.03
2018-11-02T08:18:52.888Z,100663.80
2018-11-02T08:22:59.616Z,100671.37
2018-11-02T08:27:10.510Z,100671.22
2018-11-02T08:31:17.152Z,100679.72
2018-11-02T08:35:24.007Z,100686.81
2018-11-02T08:39:30.831Z,100688.13
2018-11-02T08:43:37.613Z,100688.64
2018-11-02T08:47:44.532Z,100688.62
2018-11-02T08:51:51.254Z,100696.53
2018-11-02T08:55:58.028Z,100700.44
2018-11-02T09:00:04.929Z,100687.50
2018-11-02T09:04:11.544Z,100698.31
2018-11-02T09:08:18.247Z,100705.37
2018-11-02T09:12:33.107Z,100704.25
2018-11-02T09:16:39.743Z,100704.16
2018-11-02T09:20:46.578Z,100711.06
2018-11-02T09:24:53.408Z,100714.78
2018-11-02T09:29:00.129Z,100712.84
2018-11-02T09:33:07.145Z,100714.45
2018-11-02T09:37:13.834Z,100723.39
2018-11-02T09:41:20.549Z,100722.05
2018-11-02T09:45:27.364Z,100718.05
2018-11-02T09:49:33.978Z,100718.41
2018-11-02T09:53:40.682Z,100718.94
2018-11-02T09:57:47.659Z,100721.11
2018-11-02T10:01:56.420Z,100710.77
2018-11-02T10:06:03.251Z,100721.55
2018-11-02T10:10:11.459Z,100723.16
2018-11-02T10:14:18.185Z,100729.30
2018-11-02T10:18:24.815Z,100732.03
2018-11-02T10:22:31.621Z,100737.50
2018-11-02T10:26:38.259Z,100727.50
2018-11-02T10:30:44.975Z,100727.25
2018-11-02T10:34:52.359Z,100731.34
2018-11-02T10:39:00.253Z,100741.91
2018-11-02T10:43:13.283Z,100739.83
2018-11-02T10:47:20.097Z,100744.26
2018-11-02T10:51:26.901Z,100742.01
2018-11-02T10:55:33.590Z,100734.91
2018-11-02T10:59:40.541Z,100745.31
2018-11-02T11:03:47.248Z,100743.64
2018-11-02T11:07:54.051Z,100744.47
2018-11-02T11:12:00.884Z,100737.14
2018-11-02T11:16:07.710Z,100728.30
2018-11-02T11:20:15.244Z,100731.55
2018-11-02T11:24:21.953Z,100726.33
2018-11-02T11:28:28.786Z,100726.37
2018-11-02T11:32:35.424Z,100718.56
2018-11-02T11:36:42.129Z,100725.98
2018-11-02T11:40:48.935Z,100717.69
2018-11-02T11:44:55.658Z,100714.87
2018-11-02T11:49:02.638Z,100708.23
2018-11-02T11:53:09.164Z,100702.19
2018-11-02T11:57:15.936Z,100696.48
2018-11-02T12:01:22.709Z,100689.85
2018-11-02T12:05:29.436Z,100689.85
2018-11-02T12:09:36.171Z,100697.98
2018-11-02T12:13:42.935Z,100701.44
2018-11-02T12:17:50.438Z,100700.18
2018-11-02T12:21:57.065Z,100710.06
2018-11-02T12:26:03.918Z,100719.38
2018-11-02T12:30:14.171Z,100710.05
2018-11-02T12:34:20.975Z,100714.73
2018-11-02T12:38:27.707Z,100719.08
2018-11-02T12:42:34.463Z,100724.97
2018-11-02T12:46:41.150Z,100720.06
2018-11-02T12:50:47.929Z,100722.78
2018-11-02T12:54:54.714Z,100718.75
2018-11-02T12:59:01.463Z,100715.91
2018-11-02T13:03:08.248Z,100716.27
2018-11-02T13:07:14.975Z,100722.39
2018-11-02T13:11:21.670Z,100732.26
2018-11-02T13:15:28.571Z,100736.22
2018-11-02T13:19:35.196Z,100745.61
2018-11-02T13:23:41.961Z,100745.61
2018-11-02T13:27:50.132Z,100751.22
2018-11-02T13:31:56.976Z,100747.05
2018-11-02T13:36:03.913Z,100758.56
2018-11-02T13:40:12.807Z,100763.25
2018-11-02T13:44:19.671Z,100778.05
2018-11-02T13:48:26.324Z,100785.73
2018-11-02T13:52:33.101Z,100790.38
2018-11-02T13:56:39.791Z,100778.57
2018-11-02T14:00:46.554Z,100790.27
2018-11-02T14:04:53.273Z,100778.02
2018-11-02T14:09:00.813Z,100778.02
2018-11-02T14:13:07.566Z,100786.49
2018-11-02T14:17:14.344Z,100792.12
2018-11-02T14:21:21.111Z,100792.92
2018-11-02T14:25:27.831Z,100804.94
2018-11-02T14:29:34.847Z,100824.46
2018-11-02T14:33:41.661Z,100833.48
2018-11-02T14:37:48.381Z,100835.91
2018-11-02T14:41:55.114Z,100827.75
2018-11-02T14:46:01.890Z,100828.18
2018-11-02T14:50:10.293Z,100828.18
2018-11-02T14:54:17.005Z,100826.95
2018-11-02T14:58:23.725Z,100828.83
2018-11-02T15:02:32.957Z,100825.38
2018-11-02T15:06:39.575Z,100832.23
2018-11-02T15:10:47.296Z,100844.96
2018-11-02T15:14:54.002Z,100849.33
2018-11-02T15:19:00.748Z,100843.45
2018-11-02T15:23:07.828Z,100850.70
2018-11-02T15:27:14.598Z,100845.64
2018-11-02T15:31:21.326Z,100853.27
2018-11-02T15:35:27.950Z,100859.78
2018-11-02T15:39:34.677Z,100867.16
2018-11-02T15:43:41.414Z,100868.41
2018-11-02T15:47:48.171Z,100883.64
2018-11-02T15:51:54.992Z,100889.47
2018-11-02T15:56:01.826Z,100888.67
2018-11-02T16:00:21.264Z,100894.05
2018-11-02T16:04:27.951Z,100893.69
2018-11-02T16:08:34.650Z,100896.80
2018-11-02T16:12:42.040Z,100903.34
2018-11-02T16:16:48.801Z,100921.22
2018-11-02T16:20:55.601Z,100931.95
2018-11-02T16:25:02.393Z,100937.58
2018-11-02T16:29:09.153Z,100948.30
2018-11-02T16:33:16.059Z,100954.09
2018-11-02T16:37:22.670Z,100968.76
2018-11-02T16:41:29.440Z,100980.93
2018-11-02T16:45:36.171Z,100987.29
2018-11-02T16:49:42.979Z,100988.73
2018-11-02T16:53:49.811Z,100999.56
2018-11-02T16:57:56.568Z,101011.22
2018-11-02T17:02:03.274Z,101021.00
2018-11-02T17:06:10.191Z,101025.03
2018-11-02T17:10:17.033Z,101035.06
2018-11-02T17:14:23.743Z,101038.69
2018-11-02T17:18:30.746Z,101048.64
2018-11-02T17:22:37.435Z,101060.80
2018-11-02T17:26:44.224Z,101075.01
2018-11-02T17:30:51.023Z,101080.04
2018-11-02T17:34:59.073Z,101083.98
2018-11-02T17:39:10.544Z,101080.95
2018-11-02T17:43:19.624Z,101087.30
2018-11-02T17:47:24.722Z,101087.92
2018-11-02T17:51:32.692Z,101095.53
2018-11-02T17:55:40.138Z,101103.27
2018-11-02T17:59:51.307Z,101098.84
2018-11-02T18:03:58.435Z,101100.28
2018-11-02T18:08:05.521Z,101104.64
2018-11-02T18:12:13.223Z,101093.16
2018-11-02T18:16:20.028Z,101098.16
2018-11-02T18:20:26.744Z,101108.27
2018-11-02T18:24:33.487Z,101109.08
2018-11-02T18:28:40.181Z,101115.17
2018-11-02T18:32:46.932Z,101127.42
2018-11-02T18:37:06.410Z,101129.09
2018-11-02T18:41:14.311Z,101136.08
2018-11-02T18:45:21.376Z,101134.28
2018-11-02T18:49:28.221Z,101142.35
2018-11-02T18:53:34.993Z,101145.13
2018-11-02T18:57:41.732Z,101156.37
2018-11-02T19:01:48.485Z,101159.11
2018-11-02T19:05:55.183Z,101171.59
2018-11-02T19:10:01.937Z,101175.93
2018-11-02T19:14:08.697Z,101186.59
2018-11-02T19:18:15.571Z,101193.86
2018-11-02T19:22:22.356Z,101186.51
2018-11-02T19:26:29.142Z,101193.48
2018-11-02T19:30:35.866Z,101183.78
2018-11-02T19:34:42.774Z,101192.38
2018-11-02T19:38:49.475Z,101198.52
2018-11-02T19:42:56.121Z,101209.06
2018-11-02T19:47:05.236Z,101206.42
2018-11-02T19:51:12.021Z,101215.66
2018-11-02T19:55:18.808Z,101217.55
2018-11-02T19:59:28.477Z,101222.27
2018-11-02T20:03:35.247Z,101234.80
2018-11-02T20:07:42.578Z,101244.20
2018-11-02T20:11:49.622Z,101263.80
2018-11-02T20:15:56.304Z,101271.09
2018-11-02T20:20:03.234Z,101278.16
2018-11-02T20:24:10.078Z,101271.55
2018-11-02T20:28:17.007Z,101280.80
2018-11-02T20:32:23.917Z,101279.27
2018-11-02T20:36:33.146Z,101286.89
2018-11-02T20:40:42.004Z,101296.32
2018-11-02T20:44:46.674Z,101290.38
2018-11-02T20:48:53.683Z,101298.00
2018-11-02T20:53:00.258Z,101304.87
2018-11-02T20:57:07.084Z,101292.15
2018-11-02T21:01:13.833Z,101286.21
2018-11-02T21:05:21.303Z,101291.19
2018-11-02T21:09:28.361Z,101301.47
2018-11-02T21:13:35.048Z,101309.28
2018-11-02T21:17:47.133Z,101315.03
2018-11-02T21:21:53.896Z,101315.32
2018-11-02T21:26:00.588Z,101314.91
2018-11-02T21:30:27.309Z,101319.70
2018-11-02T21:34:34.121Z,101320.05
2018-11-02T21:38:40.981Z,101320.60
2018-11-02T21:42:47.857Z,101328.77
2018-11-02T21:46:54.506Z,101329.23
2018-11-02T21:51:01.449Z,101326.27
2018-11-02T21:55:08.602Z,101323.31
2018-11-02T21:59:15.324Z,101328.10
2018-11-02T22:03:22.023Z,101329.57
2018-11-02T22:07:28.844Z,101337.53
2018-11-02T22:11:35.528Z,101336.31
2018-11-02T22:15:42.353Z,101333.13
2018-11-02T22:19:48.979Z,101340.60
2018-11-02T22:23:55.830Z,101341.73
2018-11-02T22:28:02.511Z,101334.91
2018-11-02T22:32:09.435Z,101328.59
2018-11-02T22:36:16.804Z,101336.73
2018-11-02T22:40:23.484Z,101339.03
2018-11-02T22:44:30.190Z,101343.02
2018-11-02T22:48:36.966Z,101354.42
2018-11-02T22:52:43.798Z,101349.52
2018-11-02T22:56:50.554Z,101344.64
2018-11-02T23:01:14.784Z,101353.00
2018-11-02T23:05:21.539Z,101343.69
2018-11-02T23:09:28.241Z,101345.74
2018-11-02T23:13:35.184Z,101344.33
2018-11-02T23:17:41.928Z,101352.70
2018-11-02T23:21:48.776Z,101348.86
2018-11-02T23:25:55.492Z,101349.93
2018-11-02T23:30:02.405Z,101352.47
2018-11-02T23:34:08.988Z,101354.09
2018-11-02T23:38:19.037Z,101359.73
2018-11-02T23:42:28.219Z,101354.21
2018-11-02T23:46:37.815Z,101352.41
2018-11-02T23:50:44.449Z,101348.55
2018-11-02T23:54:51.169Z,101348.19
2018-11-02T23:58:57.918Z,101340.48
